Aviation Digital Data Service (ADDS)

Output produced by TAFs form (0644 UTC 23 February 2018)
found at http://www.aviationweather.gov/adds/tafs/
 
KMOB 230638Z AUTO 15005KT 10SM BKN008 20/19 A3033 RMK AO2 T02000189 $
KMOB 230524Z 2306/2406 15008KT P6SM BKN010 
     FM230800 13004KT 1/2SM FG VV002 
     TEMPO 2308/2312 1/4SM FG VV001 
     FM231500 12008KT P6SM BKN015 
     FM231800 14011KT P6SM BKN025